sensor_id;sensor_type;location;lat;lon;timestamp;pressure;altitude;pressure_sealevel;temperature;humidity
47374;BME280;33123;50.118;10.272;2023-05-14T00:02:42;97823.50;;;12.16;71.57
47374;BME280;33123;50.118;10.272;2023-05-14T00:05:08;97818.94;;;12.11;71.48
47374;BME280;33123;50.118;10.272;2023-05-14T00:07:35;97817.38;;;12.10;71.47
47374;BME280;33123;50.118;10.272;2023-05-14T00:10:02;97815.75;;;12.09;71.27
47374;BME280;33123;50.118;10.272;2023-05-14T00:12:29;97819.97;;;12.05;71.60
47374;BME280;33123;50.118;10.272;2023-05-14T00:14:55;97816.75;;;12.03;71.62
47374;BME280;33123;50.118;10.272;2023-05-14T00:17:22;97807.78;;;12.04;71.53
47374;BME280;33123;50.118;10.272;2023-05-14T00:19:50;97808.31;;;12.01;71.28
47374;BME280;33123;50.118;10.272;2023-05-14T00:22:16;97805.63;;;11.96;71.33
47374;BME280;33123;50.118;10.272;2023-05-14T00:24:43;97803.47;;;11.93;71.22
47374;BME280;33123;50.118;10.272;2023-05-14T00:27:10;97803.97;;;11.90;71.45
47374;BME280;33123;50.118;10.272;2023-05-14T00:29:36;97808.97;;;11.86;71.66
47374;BME280;33123;50.118;10.272;2023-05-14T00:32:03;97800.75;;;11.83;71.79
47374;BME280;33123;50.118;10.272;2023-05-14T00:34:30;97800.16;;;11.81;71.55
47374;BME280;33123;50.118;10.272;2023-05-14T00:36:58;97801.72;;;11.77;71.91
47374;BME280;33123;50.118;10.272;2023-05-14T00:39:25;97802.47;;;11.72;72.25
47374;BME280;33123;50.118;10.272;2023-05-14T00:41:51;97798.47;;;11.70;72.34
47374;BME280;33123;50.118;10.272;2023-05-14T00:44:18;97804.28;;;11.67;72.16
47374;BME280;33123;50.118;10.272;2023-05-14T00:46:44;97799.00;;;11.67;72.48
47374;BME280;33123;50.118;10.272;2023-05-14T00:49:11;97787.59;;;11.61;72.54
47374;BME280;33123;50.118;10.272;2023-05-14T00:51:38;97796.53;;;11.60;72.42
47374;BME280;33123;50.118;10.272;2023-05-14T00:54:07;97797.38;;;11.60;72.51
47374;BME280;33123;50.118;10.272;2023-05-14T00:56:34;97802.38;;;11.62;71.85
47374;BME280;33123;50.118;10.272;2023-05-14T00:59:00;97800.00;;;11.60;72.21
47374;BME280;33123;50.118;10.272;2023-05-14T01:01:27;97792.09;;;11.60;71.97
47374;BME280;33123;50.118;10.272;2023-05-14T01:03:54;97796.25;;;11.56;72.38
47374;BME280;33123;50.118;10.272;2023-05-14T01:06:26;97795.75;;;11.59;71.85
47374;BME280;33123;50.118;10.272;2023-05-14T01:08:59;97794.72;;;11.60;71.96
47374;BME280;33123;50.118;10.272;2023-05-14T01:11:32;97789.97;;;11.62;71.69
47374;BME280;33123;50.118;10.272;2023-05-14T01:14:06;97794.47;;;11.62;71.25
47374;BME280;33123;50.118;10.272;2023-05-14T01:16:36;97786.81;;;11.60;71.03
47374;BME280;33123;50.118;10.272;2023-05-14T01:19:09;97782.81;;;11.58;71.17
47374;BME280;33123;50.118;10.272;2023-05-14T01:21:38;97789.88;;;11.52;71.62
47374;BME280;33123;50.118;10.272;2023-05-14T01:24:06;97767.31;;;11.40;71.79
47374;BME280;33123;50.118;10.272;2023-05-14T01:26:32;97786.09;;;11.43;72.45
47374;BME280;33123;50.118;10.272;2023-05-14T01:29:01;97778.41;;;11.42;72.77
47374;BME280;33123;50.118;10.272;2023-05-14T01:31:30;97778.94;;;11.39;73.09
47374;BME280;33123;50.118;10.272;2023-05-14T01:34:01;97778.63;;;11.35;73.47
47374;BME280;33123;50.118;10.272;2023-05-14T01:36:30;97778.63;;;11.35;73.07
47374;BME280;33123;50.118;10.272;2023-05-14T01:38:59;97782.06;;;11.35;73.16
47374;BME280;33123;50.118;10.272;2023-05-14T01:41:26;97772.84;;;11.38;73.12
47374;BME280;33123;50.118;10.272;2023-05-14T01:43:54;97774.44;;;11.39;72.99
47374;BME280;33123;50.118;10.272;2023-05-14T01:46:21;97777.88;;;11.40;72.59
47374;BME280;33123;50.118;10.272;2023-05-14T01:48:49;97780.22;;;11.36;72.80
47374;BME280;33123;50.118;10.272;2023-05-14T01:51:16;97772.25;;;11.31;73.00
47374;BME280;33123;50.118;10.272;2023-05-14T01:53:42;97762.19;;;11.28;73.18
47374;BME280;33123;50.118;10.272;2023-05-14T01:56:10;97772.75;;;11.28;73.35
47374;BME280;33123;50.118;10.272;2023-05-14T01:58:37;97769.53;;;11.26;73.21
47374;BME280;33123;50.118;10.272;2023-05-14T02:01:03;97766.69;;;11.27;73.23
47374;BME280;33123;50.118;10.272;2023-05-14T02:03:30;97774.81;;;11.26;73.38
47374;BME280;33123;50.118;10.272;2023-05-14T02:05:57;97769.81;;;11.24;73.40
47374;BME280;33123;50.118;10.272;2023-05-14T02:08:23;97770.84;;;11.23;73.32
47374;BME280;33123;50.118;10.272;2023-05-14T02:10:50;97764.00;;;11.22;73.82
47374;BME280;33123;50.118;10.272;2023-05-14T02:13:18;97766.84;;;11.21;73.89
47374;BME280;33123;50.118;10.272;2023-05-14T02:15:45;97763.19;;;11.22;73.37
47374;BME280;33123;50.118;10.272;2023-05-14T02:18:11;97765.25;;;11.20;73.28
47374;BME280;33123;50.118;10.272;2023-05-14T02:20:38;97761.56;;;11.21;73.20
47374;BME280;33123;50.118;10.272;2023-05-14T02:23:05;97760.78;;;11.20;73.01
47374;BME280;33123;50.118;10.272;2023-05-14T02:25:31;97761.56;;;11.21;72.80
47374;BME280;33123;50.118;10.272;2023-05-14T02:27:58;97753.38;;;11.17;73.21
47374;BME280;33123;50.118;10.272;2023-05-14T02:30:26;97753.13;;;11.19;73.03
47374;BME280;33123;50.118;10.272;2023-05-14T02:32:54;97745.22;;;11.19;72.95
47374;BME280;33123;50.118;10.272;2023-05-14T02:35:20;97756.56;;;11.19;72.97
47374;BME280;33123;50.118;10.272;2023-05-14T02:37:47;97756.81;;;11.18;72.82
47374;BME280;33123;50.118;10.272;2023-05-14T02:40:14;97760.50;;;11.17;72.95
47374;BME280;33123;50.118;10.272;2023-05-14T02:42:40;97764.16;;;11.16;73.11
47374;BME280;33123;50.118;10.272;2023-05-14T02:45:07;97759.94;;;11.15;73.17
47374;BME280;33123;50.118;10.272;2023-05-14T02:47:35;97757.28;;;11.15;73.02
47374;BME280;33123;50.118;10.272;2023-05-14T02:50:02;97757.56;;;11.13;72.72
47374;BME280;33123;50.118;10.272;2023-05-14T02:52:30;97757.28;;;11.15;72.54
47374;BME280;33123;50.118;10.272;2023-05-14T02:54:57;97745.94;;;11.14;72.38
47374;BME280;33123;50.118;10.272;2023-05-14T02:57:23;97750.44;;;11.14;72.40
47374;BME280;33123;50.118;10.272;2023-05-14T02:59:50;97745.28;;;11.02;72.07
47374;BME280;33123;50.118;10.272;2023-05-14T03:02:16;97749.59;;;11.08;72.67
47374;BME280;33123;50.118;10.272;2023-05-14T03:04:44;97756.69;;;11.07;72.72
47374;BME280;33123;50.118;10.272;2023-05-14T03:07:11;97753.53;;;11.05;72.72
47374;BME280;33123;50.118;10.272;2023-05-14T03:09:37;97753.53;;;11.05;72.75
47374;BME280;33123;50.118;10.272;2023-05-14T03:12:06;97732.78;;;10.92;73.03
47374;BME280;33123;50.118;10.272;2023-05-14T03:14:33;97750.88;;;11.05;72.58
47374;BME280;33123;50.118;10.272;2023-05-14T03:16:59;97752.47;;;11.06;72.67
47374;BME280;33123;50.118;10.272;2023-05-14T03:19:26;97750.88;;;11.05;72.36
47374;BME280;33123;50.118;10.272;2023-05-14T03:21:54;97749.28;;;11.04;72.29
47374;BME280;33123;50.118;10.272;2023-05-14T03:24:20;97748.72;;;11.02;72.68
47374;BME280;33123;50.118;10.272;2023-05-14T03:26:47;97740.81;;;11.02;72.69
47374;BME280;33123;50.118;10.272;2023-05-14T03:29:13;97750.56;;;11.02;72.84
47374;BME280;33123;50.118;10.272;2023-05-14T03:31:42;97742.66;;;11.02;73.24
47374;BME280;33123;50.118;10.272;2023-05-14T03:34:09;97749.53;;;11.03;73.23
47374;BME280;33123;50.118;10.272;2023-05-14T03:36:35;97749.84;;;11.06;73.06
47374;BME280;33123;50.118;10.272;2023-05-14T03:39:05;97744.00;;;11.04;72.80
47374;BME280;33123;50.118;10.272;2023-05-14T03:41:34;97747.72;;;11.08;72.76
47374;BME280;33123;50.118;10.272;2023-05-14T03:44:01;97748.31;;;11.10;72.75
47374;BME280;33123;50.118;10.272;2023-05-14T03:46:28;97748.84;;;11.13;72.68
47374;BME280;33123;50.118;10.272;2023-05-14T03:48:54;97750.44;;;11.14;72.62
47374;BME280;33123;50.118;10.272;2023-05-14T03:51:27;97750.75;;;11.17;72.16
47374;BME280;33123;50.118;10.272;2023-05-14T03:53:53;97751.53;;;11.18;72.24
47374;BME280;33123;50.118;10.272;2023-05-14T03:56:22;97752.06;;;11.20;72.26
47374;BME280;33123;50.118;10.272;2023-05-14T03:58:48;97753.66;;;11.21;72.22
47374;BME280;33123;50.118;10.272;2023-05-14T04:01:15;97752.66;;;11.22;72.46
47374;BME280;33123;50.118;10.272;2023-05-14T04:03:41;97746.06;;;11.24;72.37
47374;BME280;33123;50.118;10.272;2023-05-14T04:06:08;97751.66;;;11.28;72.56
47374;BME280;33123;50.118;10.272;2023-05-14T04:08:35;97744.81;;;11.32;72.38
47374;BME280;33123;50.118;10.272;2023-05-14T04:11:01;97746.97;;;11.35;72.21
47374;BME280;33123;50.118;10.272;2023-05-14T04:13:29;97748.53;;;11.36;72.24
47374;BME280;33123;50.118;10.272;2023-05-14T04:15:56;97750.19;;;11.42;72.21
47374;BME280;33123;50.118;10.272;2023-05-14T04:18:51;97753.44;;;11.49;72.11
47374;BME280;33123;50.118;10.272;2023-05-14T04:21:17;97752.44;;;11.55;72.05
47374;BME280;33123;50.118;10.272;2023-05-14T04:23:44;97757.25;;;11.63;71.90
47374;BME280;33123;50.118;10.272;2023-05-14T04:26:10;97748.31;;;11.70;71.61
47374;BME280;33123;50.118;10.272;2023-05-14T04:28:38;97752.59;;;11.76;71.39
47374;BME280;33123;50.118;10.272;2023-05-14T04:31:05;97753.22;;;11.83;71.09
47374;BME280;33123;50.118;10.272;2023-05-14T04:33:31;97760.13;;;11.89;70.80
47374;BME280;33123;50.118;10.272;2023-05-14T04:35:58;97759.34;;;11.94;70.91
47374;BME280;33123;50.118;10.272;2023-05-14T04:38:25;97760.72;;;11.96;70.32
47374;BME280;33123;50.118;10.272;2023-05-14T04:40:52;97753.09;;;12.00;70.55
47374;BME280;33123;50.118;10.272;2023-05-14T04:43:18;97756.00;;;12.03;70.27
47374;BME280;33123;50.118;10.272;2023-05-14T04:45:46;97761.59;;;12.07;70.46
47374;BME280;33123;50.118;10.272;2023-05-14T04:48:13;97767.69;;;12.12;70.55
47374;BME280;33123;50.118;10.272;2023-05-14T04:50:40;97768.00;;;12.16;70.54
47374;BME280;33123;50.118;10.272;2023-05-14T04:53:06;97768.84;;;12.22;70.80
47374;BME280;33123;50.118;10.272;2023-05-14T04:55:33;97766.75;;;12.29;70.67
47374;BME280;33123;50.118;10.272;2023-05-14T04:57:59;97772.34;;;12.37;70.30
47374;BME280;33123;50.118;10.272;2023-05-14T05:00:27;97770.28;;;12.45;70.87
47374;BME280;33123;50.118;10.272;2023-05-14T05:02:55;97768.25;;;12.57;71.21
47374;BME280;33123;50.118;10.272;2023-05-14T05:05:22;97762.47;;;12.70;70.63
47374;BME280;33123;50.118;10.272;2023-05-14T05:07:49;97763.31;;;12.81;69.34
47374;BME280;33123;50.118;10.272;2023-05-14T05:10:15;97759.13;;;12.90;69.22
47374;BME280;33123;50.118;10.272;2023-05-14T05:12:42;97753.88;;;13.00;68.89
47374;BME280;33123;50.118;10.272;2023-05-14T05:15:09;97749.66;;;13.09;69.00
47374;BME280;33123;50.118;10.272;2023-05-14T05:17:36;97747.84;;;13.20;68.76
47374;BME280;33123;50.118;10.272;2023-05-14T05:20:05;97749.75;;;13.30;67.70
47374;BME280;33123;50.118;10.272;2023-05-14T05:22:33;97756.66;;;13.41;67.84
47374;BME280;33123;50.118;10.272;2023-05-14T05:25:00;97754.53;;;13.53;67.87
47374;BME280;33123;50.118;10.272;2023-05-14T05:27:29;97757.22;;;13.68;67.54
47374;BME280;33123;50.118;10.272;2023-05-14T05:29:56;97755.63;;;13.83;66.28
47374;BME280;33123;50.118;10.272;2023-05-14T05:32:22;97750.59;;;13.96;66.52
47374;BME280;33123;50.118;10.272;2023-05-14T05:34:49;97751.91;;;14.09;65.13
47374;BME280;33123;50.118;10.272;2023-05-14T05:37:18;97748.97;;;14.21;65.35
47374;BME280;33123;50.118;10.272;2023-05-14T05:39:44;97756.66;;;14.27;64.44
47374;BME280;33123;50.118;10.272;2023-05-14T05:42:12;97755.59;;;14.34;63.83
47374;BME280;33123;50.118;10.272;2023-05-14T05:44:39;97756.09;;;14.41;63.68
47374;BME280;33123;50.118;10.272;2023-05-14T05:54:04;97758.19;;;14.54;61.12
47374;BME280;33123;50.118;10.272;2023-05-14T05:56:30;97750.78;;;14.61;61.90
47374;BME280;33123;50.118;10.272;2023-05-14T05:58:57;97758.44;;;14.63;61.30
47374;BME280;33123;50.118;10.272;2023-05-14T06:01:24;97753.44;;;14.61;60.09
47374;BME280;33123;50.118;10.272;2023-05-14T06:07:02;97753.13;;;14.73;61.33
47374;BME280;33123;50.118;10.272;2023-05-14T06:09:30;97754.72;;;14.64;60.46
47374;BME280;33123;50.118;10.272;2023-05-14T06:11:57;97745.16;;;14.73;60.42
47374;BME280;33123;50.118;10.272;2023-05-14T06:14:23;97749.66;;;14.72;60.20
47374;BME280;33123;50.118;10.272;2023-05-14T06:16:50;97752.56;;;14.76;60.75
47374;BME280;33123;50.118;10.272;2023-05-14T06:19:17;97747.00;;;14.77;60.15
47374;BME280;33123;50.118;10.272;2023-05-14T06:21:43;97751.22;;;14.84;59.33
47374;BME280;33123;50.118;10.272;2023-05-14T06:24:10;97745.38;;;14.82;59.77
47374;BME280;33123;50.118;10.272;2023-05-14T06:26:39;97747.78;;;14.78;59.35
47374;BME280;33123;50.118;10.272;2023-05-14T06:29:06;97752.00;;;14.89;59.82
47374;BME280;33123;50.118;10.272;2023-05-14T06:31:32;97749.34;;;14.89;59.47
47374;BME280;33123;50.118;10.272;2023-05-14T06:33:59;97747.47;;;14.95;59.20
47374;BME280;33123;50.118;10.272;2023-05-14T06:36:26;97749.25;;;15.04;58.68
47374;BME280;33123;50.118;10.272;2023-05-14T06:38:52;97751.38;;;15.08;59.13
47374;BME280;33123;50.118;10.272;2023-05-14T06:41:19;97752.91;;;15.19;59.41
47374;BME280;33123;50.118;10.272;2023-05-14T06:43:47;97752.66;;;15.15;58.03
47374;BME280;33123;50.118;10.272;2023-05-14T06:46:13;97753.22;;;15.12;58.09
47374;BME280;33123;50.118;10.272;2023-05-14T06:48:40;97750.53;;;15.17;57.88
47374;BME280;33123;50.118;10.272;2023-05-14T06:51:07;97748.31;;;15.29;57.89
47374;BME280;33123;50.118;10.272;2023-05-14T06:53:35;97742.78;;;15.21;57.43
47374;BME280;33123;50.118;10.272;2023-05-14T06:56:01;97735.50;;;15.42;58.48
47374;BME280;33123;50.118;10.272;2023-05-14T06:58:28;97740.22;;;15.55;58.80
47374;BME280;33123;50.118;10.272;2023-05-14T07:00:56;97746.47;;;15.74;56.87
47374;BME280;33123;50.118;10.272;2023-05-14T07:03:23;97744.09;;;16.02;57.19
47374;BME280;33123;50.118;10.272;2023-05-14T07:05:50;97741.81;;;16.19;55.39
47374;BME280;33123;50.118;10.272;2023-05-14T07:08:16;97745.56;;;16.42;54.86
47374;BME280;33123;50.118;10.272;2023-05-14T07:10:43;97741.31;;;16.65;53.34
47374;BME280;33123;50.118;10.272;2023-05-14T07:13:09;97737.34;;;17.10;53.10
47374;BME280;33123;50.118;10.272;2023-05-14T07:15:36;97739.66;;;17.74;51.26
47374;BME280;33123;50.118;10.272;2023-05-14T07:18:04;97731.38;;;18.35;49.76
47374;BME280;33123;50.118;10.272;2023-05-14T07:20:31;97736.03;;;18.98;47.51
47374;BME280;33123;50.118;10.272;2023-05-14T07:22:57;97730.38;;;19.50;47.09
47374;BME280;33123;50.118;10.272;2023-05-14T07:25:24;97729.31;;;20.27;48.08
47374;BME280;33123;50.118;10.272;2023-05-14T07:27:51;97733.50;;;20.90;44.03
47374;BME280;33123;50.118;10.272;2023-05-14T07:30:17;97726.75;;;21.19;41.57
47374;BME280;33123;50.118;10.272;2023-05-14T07:32:44;97714.03;;;21.50;42.90
47374;BME280;33123;50.118;10.272;2023-05-14T07:35:12;97730.28;;;21.71;40.82
47374;BME280;33123;50.118;10.272;2023-05-14T07:37:39;97719.81;;;21.96;41.37
47374;BME280;33123;50.118;10.272;2023-05-14T07:40:08;97707.16;;;21.96;42.71
47374;BME280;33123;50.118;10.272;2023-05-14T07:42:34;97715.88;;;22.49;40.76
47374;BME280;33123;50.118;10.272;2023-05-14T07:45:01;97712.06;;;22.88;41.54
47374;BME280;33123;50.118;10.272;2023-05-14T07:47:28;97712.34;;;23.37;41.87
47374;BME280;33123;50.118;10.272;2023-05-14T07:49:55;97718.19;;;23.39;37.94
47374;BME280;33123;50.118;10.272;2023-05-14T07:52:23;97715.78;;;23.58;37.77
47374;BME280;33123;50.118;10.272;2023-05-14T07:54:50;97711.81;;;23.64;39.81
47374;BME280;33123;50.118;10.272;2023-05-14T07:57:17;97708.69;;;24.08;39.60
47374;BME280;33123;50.118;10.272;2023-05-14T07:59:43;97703.22;;;24.29;37.66
47374;BME280;33123;50.118;10.272;2023-05-14T08:02:10;97700.81;;;24.03;36.93
47374;BME280;33123;50.118;10.272;2023-05-14T08:04:38;97700.50;;;24.04;38.00
47374;BME280;33123;50.118;10.272;2023-05-14T08:07:05;97678.34;;;23.86;38.76
47374;BME280;33123;50.118;10.272;2023-05-14T08:09:34;97696.78;;;24.09;37.58
47374;BME280;33123;50.118;10.272;2023-05-14T08:12:01;97703.88;;;24.26;36.09
47374;BME280;33123;50.118;10.272;2023-05-14T08:14:27;97700.78;;;24.48;40.06
47374;BME280;33123;50.118;10.272;2023-05-14T08:16:54;97704.06;;;24.66;38.18
47374;BME280;33123;50.118;10.272;2023-05-14T08:19:21;97701.94;;;24.71;38.02
47374;BME280;33123;50.118;10.272;2023-05-14T08:21:48;97702.69;;;24.47;36.47
47374;BME280;33123;50.118;10.272;2023-05-14T08:24:15;97691.53;;;24.24;37.50
47374;BME280;33123;50.118;10.272;2023-05-14T08:26:43;97687.63;;;24.22;39.23
47374;BME280;33123;50.118;10.272;2023-05-14T08:29:10;97686.03;;;24.09;37.70
47374;BME280;33123;50.118;10.272;2023-05-14T08:31:37;97689.94;;;23.99;37.98
47374;BME280;33123;50.118;10.272;2023-05-14T08:34:04;97686.19;;;23.58;35.97
47374;BME280;33123;50.118;10.272;2023-05-14T08:36:30;97687.88;;;23.51;37.81
47374;BME280;33123;50.118;10.272;2023-05-14T08:38:57;97678.72;;;23.64;38.67
47374;BME280;33123;50.118;10.272;2023-05-14T08:41:24;97685.38;;;23.66;37.02
47374;BME280;33123;50.118;10.272;2023-05-14T08:43:56;97681.81;;;23.87;37.87
47374;BME280;33123;50.118;10.272;2023-05-14T08:46:28;97687.06;;;24.29;37.37
47374;BME280;33123;50.118;10.272;2023-05-14T08:48:59;97680.44;;;24.75;35.13
47374;BME280;33123;50.118;10.272;2023-05-14T08:51:30;97687.88;;;24.78;34.50
47374;BME280;33123;50.118;10.272;2023-05-14T08:53:58;97672.53;;;24.54;33.79
47374;BME280;33123;50.118;10.272;2023-05-14T08:56:25;97677.78;;;24.51;35.03
47374;BME280;33123;50.118;10.272;2023-05-14T08:58:53;97681.50;;;24.46;34.60
47374;BME280;33123;50.118;10.272;2023-05-14T09:01:20;97685.75;;;24.35;33.76
47374;BME280;33123;50.118;10.272;2023-05-14T09:03:47;97671.91;;;24.24;34.32
47374;BME280;33123;50.118;10.272;2023-05-14T09:06:14;97686.81;;;24.09;34.22
47374;BME280;33123;50.118;10.272;2023-05-14T09:08:41;97679.50;;;23.97;34.29
47374;BME280;33123;50.118;10.272;2023-05-14T09:11:08;97684.03;;;24.18;35.09
47374;BME280;33123;50.118;10.272;2023-05-14T09:13:36;97671.91;;;24.12;35.70
47374;BME280;33123;50.118;10.272;2023-05-14T09:16:05;97685.44;;;23.91;36.83
47374;BME280;33123;50.118;10.272;2023-05-14T09:18:34;97683.81;;;23.65;36.91
47374;BME280;33123;50.118;10.272;2023-05-14T09:21:01;97686.91;;;23.34;37.60
47374;BME280;33123;50.118;10.272;2023-05-14T09:23:31;97678.31;;;22.99;37.66
47374;BME280;33123;50.118;10.272;2023-05-14T09:25:57;97682.19;;;22.81;38.61
47374;BME280;33123;50.118;10.272;2023-05-14T09:28:24;97682.97;;;22.60;38.89
47374;BME280;33123;50.118;10.272;2023-05-14T09:34:34;97673.78;;;21.68;39.49
47374;BME280;33123;50.118;10.272;2023-05-14T09:37:03;97686.22;;;21.20;39.81
47374;BME280;33123;50.118;10.272;2023-05-14T09:39:31;97681.34;;;21.05;40.28
47374;BME280;33123;50.118;10.272;2023-05-14T09:41:58;97676.13;;;20.91;41.38
47374;BME280;33123;50.118;10.272;2023-05-14T09:44:26;97684.97;;;20.83;42.79
47374;BME280;33123;50.118;10.272;2023-05-14T09:46:53;97682.56;;;20.81;42.99
47374;BME280;33123;50.118;10.272;2023-05-14T09:49:19;97687.44;;;20.71;42.48
47374;BME280;33123;50.118;10.272;2023-05-14T09:51:49;97684.75;;;20.62;43.56
47374;BME280;33123;50.118;10.272;2023-05-14T09:54:15;97681.31;;;20.30;41.78
47374;BME280;33123;50.118;10.272;2023-05-14T09:56:43;97684.59;;;20.27;42.55
47374;BME280;33123;50.118;10.272;2023-05-14T09:59:10;97681.38;;;20.08;42.17
47374;BME280;33123;50.118;10.272;2023-05-14T10:01:37;97683.38;;;20.02;41.25
47374;BME280;33123;50.118;10.272;2023-05-14T10:04:06;97691.91;;;20.04;42.17
47374;BME280;33123;50.118;10.272;2023-05-14T10:06:37;97685.00;;;20.12;44.59
47374;BME280;33123;50.118;10.272;2023-05-14T10:09:11;97692.00;;;20.22;42.48
47374;BME280;33123;50.118;10.272;2023-05-14T10:11:43;97685.59;;;20.40;43.63
47374;BME280;33123;50.118;10.272;2023-05-14T10:14:13;97677.44;;;20.45;41.46
47374;BME280;33123;50.118;10.272;2023-05-14T10:16:46;97682.56;;;20.73;42.68
47374;BME280;33123;50.118;10.272;2023-05-14T10:19:14;97672.84;;;21.29;44.44
47374;BME280;33123;50.118;10.272;2023-05-14T10:21:44;97671.00;;;22.02;41.02
47374;BME280;33123;50.118;10.272;2023-05-14T10:24:14;97675.66;;;22.31;36.86
47374;BME280;33123;50.118;10.272;2023-05-14T10:26:41;97672.81;;;22.66;35.54
47374;BME280;33123;50.118;10.272;2023-05-14T10:29:09;97674.22;;;22.63;36.33
47374;BME280;33123;50.118;10.272;2023-05-14T10:31:46;97667.94;;;22.59;37.97
47374;BME280;33123;50.118;10.272;2023-05-14T10:34:34;97676.03;;;22.51;37.22
47374;BME280;33123;50.118;10.272;2023-05-14T10:37:03;97630.94;;;22.35;37.17
47374;BME280;33123;50.118;10.272;2023-05-14T10:39:46;97659.69;;;22.64;38.14
47374;BME280;33123;50.118;10.272;2023-05-14T10:42:15;97653.66;;;22.67;39.00
47374;BME280;33123;50.118;10.272;2023-05-14T10:44:47;97659.81;;;22.68;38.47
47374;BME280;33123;50.118;10.272;2023-05-14T10:47:14;97654.56;;;22.51;39.13
47374;BME280;33123;50.118;10.272;2023-05-14T10:49:42;97653.09;;;22.53;38.18
47374;BME280;33123;50.118;10.272;2023-05-14T10:52:10;97649.78;;;23.07;38.56
47374;BME280;33123;50.118;10.272;2023-05-14T10:54:37;97648.28;;;23.51;36.42
47374;BME280;33123;50.118;10.272;2023-05-14T10:57:10;97644.19;;;24.11;36.61
47374;BME280;33123;50.118;10.272;2023-05-14T10:59:39;97644.03;;;24.93;36.45
47374;BME280;33123;50.118;10.272;2023-05-14T11:02:18;97638.59;;;25.74;35.61
47374;BME280;33123;50.118;10.272;2023-05-14T11:04:51;97634.78;;;26.22;32.07
47374;BME280;33123;50.118;10.272;2023-05-14T11:07:23;97635.44;;;26.35;33.13
47374;BME280;33123;50.118;10.272;2023-05-14T11:09:50;97626.84;;;26.45;32.75
47374;BME280;33123;50.118;10.272;2023-05-14T11:12:18;97622.81;;;26.39;33.00
47374;BME280;33123;50.118;10.272;2023-05-14T11:14:45;97620.72;;;26.32;33.80
47374;BME280;33123;50.118;10.272;2023-05-14T11:17:12;97621.38;;;26.10;30.34
47374;BME280;33123;50.118;10.272;2023-05-14T11:19:42;97618.56;;;25.47;31.83
47374;BME280;33123;50.118;10.272;2023-05-14T11:22:08;97616.53;;;25.28;34.01
47374;BME280;33123;50.118;10.272;2023-05-14T11:24:38;97614.28;;;24.90;35.33
47374;BME280;33123;50.118;10.272;2023-05-14T11:27:06;97618.69;;;24.82;36.36
47374;BME280;33123;50.118;10.272;2023-05-14T11:29:34;97608.81;;;25.14;35.91
47374;BME280;33123;50.118;10.272;2023-05-14T11:32:01;97599.31;;;25.33;33.92
47374;BME280;33123;50.118;10.272;2023-05-14T11:34:28;97598.25;;;25.65;34.17
47374;BME280;33123;50.118;10.272;2023-05-14T11:36:55;97592.84;;;25.81;33.85
47374;BME280;33123;50.118;10.272;2023-05-14T11:39:24;97593.16;;;25.64;30.62
47374;BME280;33123;50.118;10.272;2023-05-14T11:41:50;97590.53;;;25.79;31.36
47374;BME280;33123;50.118;10.272;2023-05-14T11:44:17;97580.59;;;25.84;33.20
47374;BME280;33123;50.118;10.272;2023-05-14T11:46:54;97584.13;;;25.56;32.66
47374;BME280;33123;50.118;10.272;2023-05-14T11:49:21;97577.00;;;25.20;33.89
47374;BME280;33123;50.118;10.272;2023-05-14T11:51:48;97581.66;;;25.07;35.17
47374;BME280;33123;50.118;10.272;2023-05-14T11:54:15;97563.91;;;25.06;36.96
47374;BME280;33123;50.118;10.272;2023-05-14T11:56:41;97575.13;;;25.08;34.12
47374;BME280;33123;50.118;10.272;2023-05-14T11:59:10;97575.59;;;25.10;34.68
47374;BME280;33123;50.118;10.272;2023-05-14T12:01:37;97568.53;;;25.06;34.66
47374;BME280;33123;50.118;10.272;2023-05-14T12:04:06;97574.84;;;24.85;35.49
47374;BME280;33123;50.118;10.272;2023-05-14T12:06:33;97572.69;;;24.91;34.81
47374;BME280;33123;50.118;10.272;2023-05-14T12:09:00;97572.50;;;24.84;35.13
47374;BME280;33123;50.118;10.272;2023-05-14T12:11:29;97561.44;;;25.01;35.85
47374;BME280;33123;50.118;10.272;2023-05-14T12:13:58;97565.78;;;25.18;36.43
47374;BME280;33123;50.118;10.272;2023-05-14T12:16:29;97560.72;;;25.16;32.99
47374;BME280;33123;50.118;10.272;2023-05-14T12:18:58;97556.38;;;25.12;35.03
47374;BME280;33123;50.118;10.272;2023-05-14T12:21:28;97554.56;;;25.16;34.01
47374;BME280;33123;50.118;10.272;2023-05-14T12:23:57;97545.03;;;25.06;32.38
47374;BME280;33123;50.118;10.272;2023-05-14T12:26:24;97551.09;;;25.03;33.15
47374;BME280;33123;50.118;10.272;2023-05-14T12:28:56;97549.13;;;24.60;31.87
47374;BME280;33123;50.118;10.272;2023-05-14T12:31:27;97542.19;;;24.46;32.20
47374;BME280;33123;50.118;10.272;2023-05-14T12:33:54;97535.34;;;24.24;33.31
47374;BME280;33123;50.118;10.272;2023-05-14T12:36:21;97528.19;;;24.04;34.18
47374;BME280;33123;50.118;10.272;2023-05-14T12:38:49;97461.13;;;23.75;35.86
47374;BME280;33123;50.118;10.272;2023-05-14T12:41:16;97520.22;;;24.08;34.48
47374;BME280;33123;50.118;10.272;2023-05-14T12:43:43;97514.72;;;24.04;34.72
47374;BME280;33123;50.118;10.272;2023-05-14T12:46:10;97509.56;;;24.11;35.86
47374;BME280;33123;50.118;10.272;2023-05-14T12:48:37;97509.09;;;24.21;36.32
47374;BME280;33123;50.118;10.272;2023-05-14T12:51:04;97509.56;;;24.11;34.84
47374;BME280;33123;50.118;10.272;2023-05-14T12:53:32;97504.72;;;24.17;37.00
47374;BME280;33123;50.118;10.272;2023-05-14T12:56:00;97503.72;;;24.21;35.86
47374;BME280;33123;50.118;10.272;2023-05-14T12:58:27;97470.19;;;24.07;33.78
47374;BME280;33123;50.118;10.272;2023-05-14T13:00:55;97485.72;;;24.26;33.91
47374;BME280;33123;50.118;10.272;2023-05-14T13:03:22;97484.50;;;24.23;32.66
47374;BME280;33123;50.118;10.272;2023-05-14T13:05:50;97451.38;;;23.70;33.48
47374;BME280;33123;50.118;10.272;2023-05-14T13:08:17;97481.97;;;23.90;34.58